Time;durP1;ratioP1;P1;durP2;ratioP2;P2;SDS_P1;SDS_P2;PMS_P1;PMS_P2;Temp;Humidity;BMP_temperature;BMP_pressure;BME280_temperature;BME280_humidity;BME280_pressure;Samples;Min_cycle;Max_cycle;Signal;HPM_P1;HPM_P2
2023/04/15 00:02:24;;;;;;;7.93;4.40;;;8.20;99.90;;;;;;5076755;28;20040;-63
2023/04/15 00:04:49;;;;;;;11.00;4.33;;;8.10;99.90;;;;;;5076292;28;20027;-63
2023/04/15 00:07:15;;;;;;;8.43;4.03;;;8.10;99.90;;;;;;5075914;28;20262;-63
2023/04/15 00:09:41;;;;;;;7.40;4.10;;;8.10;99.90;;;;;;5076194;28;20043;-63
2023/04/15 00:12:08;;;;;;;4.63;3.80;;;8.10;99.90;;;;;;5075857;28;20025;-62
2023/04/15 00:14:35;;;;;;;9.85;4.30;;;8.10;99.90;;;;;;5076075;28;20486;-82
2023/04/15 00:17:01;;;;;;;11.77;4.53;;;8.00;99.90;;;;;;5075895;28;20033;-62
2023/04/15 00:19:27;;;;;;;7.03;3.80;;;8.10;99.90;;;;;;5075810;28;20389;-63
2023/04/15 00:21:52;;;;;;;10.40;4.13;;;8.00;99.90;;;;;;5075625;28;20024;-63
2023/04/15 00:24:18;;;;;;;8.23;5.00;;;8.00;99.90;;;;;;5075608;28;20052;-63
2023/04/15 00:26:43;;;;;;;7.30;4.27;;;8.00;99.90;;;;;;5076095;28;20025;-63
2023/04/15 00:29:09;;;;;;;8.70;4.53;;;8.00;99.90;;;;;;5075182;28;20462;-62
2023/04/15 00:31:35;;;;;;;9.57;4.57;;;8.00;99.90;;;;;;5075525;28;20032;-84
2023/04/15 00:34:01;;;;;;;9.53;4.00;;;7.90;99.90;;;;;;5074263;28;20058;-62
2023/04/15 00:36:27;;;;;;;9.17;4.83;;;8.00;99.90;;;;;;5074664;28;20035;-63
2023/04/15 00:38:52;;;;;;;12.23;4.50;;;7.90;99.90;;;;;;5075454;28;20044;-62
2023/04/15 00:41:19;;;;;;;9.53;4.70;;;8.00;99.90;;;;;;5074747;28;20028;-63
2023/04/15 00:43:45;;;;;;;;;;;7.90;99.90;;;;;;5076002;28;20404;-63
2023/04/15 00:46:14;;;;;;;10.53;4.50;;;7.90;99.90;;;;;;5075084;28;19915;-63
2023/04/15 00:48:41;;;;;;;8.25;4.20;;;7.90;99.90;;;;;;5075571;28;20027;-86
2023/04/15 00:51:07;;;;;;;6.75;4.13;;;7.80;99.90;;;;;;5075248;28;20074;-62
2023/04/15 00:53:33;;;;;;;12.00;4.40;;;7.80;99.90;;;;;;5075485;28;20040;-62
2023/04/15 00:55:58;;;;;;;11.50;4.20;;;7.80;99.90;;;;;;5074076;28;20054;-63
2023/04/15 00:58:26;;;;;;;9.37;3.67;;;7.80;99.90;;;;;;5075046;28;20017;-66
2023/04/15 01:00:54;;;;;;;6.78;3.92;;;7.70;99.90;;;;;;5075048;28;20458;-62
2023/04/15 01:03:20;;;;;;;9.07;4.43;;;7.60;99.90;;;;;;5074877;28;20028;-62
2023/04/15 01:05:46;;;;;;;7.43;3.87;;;7.60;99.90;;;;;;5074172;28;20398;-64
2023/04/15 01:08:12;;;;;;;8.67;3.93;;;7.50;99.90;;;;;;5075447;28;20342;-63
2023/04/15 01:10:38;;;;;;;9.13;3.83;;;7.50;99.90;;;;;;5074725;28;20469;-62
2023/04/15 01:13:04;;;;;;;10.23;4.05;;;7.50;99.90;;;;;;5075028;28;20032;-64
2023/04/15 01:15:30;;;;;;;10.03;4.60;;;7.60;99.90;;;;;;5075083;28;20069;-63
2023/04/15 01:18:01;;;;;;;6.80;3.88;;;7.50;99.90;;;;;;5075092;28;20029;-62
2023/04/15 01:20:28;;;;;;;11.38;4.68;;;7.50;99.90;;;;;;5073717;28;20035;-62
2023/04/15 01:22:54;;;;;;;12.93;5.38;;;7.50;99.90;;;;;;5075183;28;20056;-67
2023/04/15 01:25:48;;;;;;;9.02;4.78;;;7.50;99.90;;;;;;5074631;28;20469;-62
2023/04/15 01:28:14;;;;;;;10.88;4.82;;;7.50;99.90;;;;;;5071731;28;20060;-65
2023/04/15 01:30:39;;;;;;;11.17;4.90;;;7.40;99.90;;;;;;5074564;28;20078;-62
2023/04/15 01:33:05;;;;;;;13.03;4.83;;;7.50;99.90;;;;;;5074947;28;20028;-62
2023/04/15 01:35:31;;;;;;;7.53;4.70;;;7.40;99.90;;;;;;5075092;28;20407;-62
2023/04/15 01:38:07;;;;;;;10.18;4.97;;;7.50;99.90;;;;;;5061157;28;20024;-62
2023/04/15 01:40:34;;;;;;;7.60;4.50;;;7.50;99.90;;;;;;5075093;28;20036;-62
2023/04/15 01:43:00;;;;;;;;;;;7.60;99.90;;;;;;5074532;28;20021;-62
2023/04/15 01:45:26;;;;;;;9.05;4.65;;;7.60;99.90;;;;;;5074793;28;20309;-63
2023/04/15 01:47:52;;;;;;;7.10;4.90;;;7.60;99.90;;;;;;5073264;28;20029;-62
2023/04/15 01:50:19;;;;;;;11.55;5.10;;;7.60;99.90;;;;;;5073673;28;20085;-62
2023/04/15 01:52:45;;;;;;;8.43;4.57;;;7.60;99.90;;;;;;5076754;28;20032;-65
2023/04/15 01:55:12;;;;;;;9.57;4.72;;;7.60;99.90;;;;;;5078567;28;20021;-63
2023/04/15 01:57:38;;;;;;;8.20;5.20;;;7.60;99.90;;;;;;5078617;28;20032;-63
2023/04/15 02:00:06;;;;;;;17.43;5.73;;;7.60;99.90;;;;;;5078329;28;20074;-65
2023/04/15 02:02:33;;;;;;;7.22;4.80;;;7.60;99.90;;;;;;5078333;28;20342;-63
2023/04/15 02:04:58;;;;;;;10.50;5.03;;;7.70;99.90;;;;;;5078431;28;20099;-62
2023/04/15 02:07:25;;;;;;;9.33;4.37;;;7.60;99.90;;;;;;5078299;28;20108;-63
2023/04/15 02:09:50;;;;;;;11.55;4.25;;;7.70;99.90;;;;;;5078798;28;20066;-62
2023/04/15 02:12:16;;;;;;;10.93;5.17;;;7.60;99.90;;;;;;5078155;28;20062;-62
2023/04/15 02:14:42;;;;;;;11.50;4.63;;;7.60;99.90;;;;;;5078207;28;20032;-62
2023/04/15 02:17:07;;;;;;;12.40;4.67;;;7.60;99.90;;;;;;5077746;28;20024;-62
2023/04/15 02:19:34;;;;;;;10.17;4.40;;;7.70;99.90;;;;;;5078438;28;20035;-62
2023/04/15 02:22:00;;;;;;;9.98;4.95;;;7.70;99.90;;;;;;5076689;28;20013;-62
2023/04/15 02:24:27;;;;;;;8.65;4.90;;;7.70;99.90;;;;;;5078155;28;20021;-62
2023/04/15 02:26:53;;;;;;;9.15;4.65;;;7.70;99.90;;;;;;5077984;28;20095;-82
2023/04/15 02:29:19;;;;;;;9.33;4.83;;;7.70;99.90;;;;;;5077367;28;20050;-62
2023/04/15 02:31:45;;;;;;;12.43;4.27;;;7.70;99.90;;;;;;5077812;28;20038;-62
2023/04/15 02:34:10;;;;;;;7.13;4.50;;;7.60;99.90;;;;;;5077568;28;20082;-62
2023/04/15 02:36:36;;;;;;;6.63;3.80;;;7.70;99.90;;;;;;5077921;28;20021;-63
2023/04/15 02:39:02;;;;;;;9.53;4.53;;;7.60;99.90;;;;;;5077398;28;20071;-62
2023/04/15 02:41:29;;;;;;;8.20;4.82;;;7.70;99.90;;;;;;5077858;28;20419;-62
2023/04/15 02:43:55;;;;;;;11.23;5.43;;;7.70;99.90;;;;;;5077575;28;20309;-78
2023/04/15 02:46:21;;;;;;;9.93;5.88;;;7.60;99.90;;;;;;5077418;28;20020;-62
2023/04/15 02:48:48;;;;;;;8.47;4.93;;;7.60;99.90;;;;;;5077558;28;20032;-62
2023/04/15 02:51:19;;;;;;;9.38;4.70;;;7.60;99.90;;;;;;5077210;28;20024;-62
2023/04/15 02:53:45;;;;;;;12.32;5.72;;;7.60;99.90;;;;;;5063764;28;20058;-62
2023/04/15 02:56:11;;;;;;;13.57;4.95;;;7.50;99.90;;;;;;5076354;28;20028;-78
2023/04/15 02:58:38;;;;;;;8.67;4.97;;;7.50;99.90;;;;;;5077706;28;20775;-62
2023/04/15 03:01:03;;;;;;;9.45;4.43;;;7.40;99.90;;;;;;5076926;28;20025;-62
2023/04/15 03:03:29;;;;;;;11.77;4.50;;;7.40;99.90;;;;;;5076649;28;20028;-62
2023/04/15 03:05:55;;;;;;;9.53;4.43;;;7.50;99.90;;;;;;5077402;28;20114;-62
2023/04/15 03:08:21;;;;;;;13.83;5.43;;;7.40;99.90;;;;;;5077250;28;20027;-62
2023/04/15 03:10:47;;;;;;;10.07;5.20;;;7.40;99.90;;;;;;5077100;28;20020;-62
2023/04/15 03:13:12;;;;;;;8.13;5.00;;;7.40;99.90;;;;;;5077312;28;20032;-63
2023/04/15 03:15:38;;;;;;;10.23;5.07;;;7.40;99.90;;;;;;5077176;28;20320;-62
2023/04/15 03:18:04;;;;;;;6.97;4.80;;;7.40;99.90;;;;;;5076969;28;20595;-67
2023/04/15 03:20:30;;;;;;;10.20;4.88;;;7.40;99.90;;;;;;5077202;28;20025;-62
2023/04/15 03:22:56;;;;;;;12.13;5.20;;;7.30;99.90;;;;;;5076629;28;20024;-80
2023/04/15 03:25:21;;;;;;;10.30;5.40;;;7.40;99.90;;;;;;5077106;28;20020;-62
2023/04/15 03:27:47;;;;;;;10.40;5.13;;;7.40;99.90;;;;;;5076370;28;20043;-62
2023/04/15 03:30:13;;;;;;;11.60;5.40;;;7.40;99.90;;;;;;5076946;28;20025;-62
2023/04/15 03:32:39;;;;;;;10.13;5.10;;;7.40;99.90;;;;;;5075188;28;20024;-63
2023/04/15 03:35:05;;;;;;;7.80;4.93;;;7.30;99.90;;;;;;5076841;28;20463;-64
2023/04/15 03:37:31;;;;;;;7.65;4.90;;;7.30;99.90;;;;;;5077048;28;20052;-61
2023/04/15 03:39:56;;;;;;;17.33;6.73;;;7.30;99.90;;;;;;5076231;28;20082;-62
2023/04/15 03:42:22;;;;;;;13.23;5.40;;;7.30;99.90;;;;;;5076770;28;20074;-62
2023/04/15 03:44:48;;;;;;;7.97;5.17;;;7.30;99.90;;;;;;5076203;28;20036;-62
2023/04/15 03:47:14;;;;;;;9.53;5.60;;;7.30;99.90;;;;;;5075432;28;20024;-62
2023/04/15 03:49:40;;;;;;;8.70;4.70;;;7.30;99.90;;;;;;5076515;28;20412;-81
2023/04/15 03:52:06;;;;;;;11.47;6.20;;;7.30;99.90;;;;;;5076478;28;20415;-62
2023/04/15 03:54:31;;;;;;;11.70;5.33;;;7.30;99.90;;;;;;5076495;28;20418;-61
2023/04/15 03:56:57;;;;;;;15.03;6.13;;;7.30;99.90;;;;;;5075979;28;20032;-62
2023/04/15 03:59:23;;;;;;;8.40;5.23;;;7.20;99.90;;;;;;5076276;28;20024;-62
2023/04/15 04:01:48;;;;;;;12.57;5.37;;;7.20;99.90;;;;;;5075883;28;20109;-62
2023/04/15 04:04:14;;;;;;;10.53;5.77;;;7.20;99.90;;;;;;5076210;28;20020;-62
2023/04/15 04:06:40;;;;;;;8.77;5.33;;;7.00;99.90;;;;;;5076168;28;20023;-62
2023/04/15 04:09:06;;;;;;;9.97;5.37;;;7.00;99.90;;;;;;5075751;28;20027;-63
2023/04/15 04:11:31;;;;;;;8.07;5.73;;;6.90;99.90;;;;;;5076393;28;20114;-62
2023/04/15 04:13:57;;;;;;;9.60;5.60;;;6.80;99.90;;;;;;5075522;28;20028;-62
2023/04/15 04:16:23;;;;;;;11.97;5.60;;;6.80;99.90;;;;;;5075442;28;20442;-83
2023/04/15 04:18:49;;;;;;;10.30;6.23;;;6.60;99.90;;;;;;5074047;28;20028;-62
2023/04/15 04:21:15;;;;;;;13.07;6.67;;;6.60;99.90;;;;;;5075889;28;20028;-62
2023/04/15 04:23:41;;;;;;;11.30;6.07;;;6.60;99.90;;;;;;5075834;28;20470;-62
2023/04/15 04:26:06;;;;;;;14.53;6.30;;;6.50;99.90;;;;;;5075748;28;20028;-62
2023/04/15 04:28:32;;;;;;;12.50;6.20;;;6.50;99.90;;;;;;5075422;28;20486;-62
2023/04/15 04:30:58;;;;;;;13.13;6.20;;;6.50;99.90;;;;;;5075358;28;20029;-62
2023/04/15 04:33:24;;;;;;;11.87;6.30;;;6.50;99.90;;;;;;5075832;28;20116;-62
2023/04/15 04:35:49;;;;;;;9.90;5.80;;;6.50;99.90;;;;;;5075165;28;20362;-62
2023/04/15 04:38:15;;;;;;;10.97;6.40;;;6.50;99.90;;;;;;5075328;28;20059;-62
2023/04/15 04:40:41;;;;;;;9.73;5.50;;;6.50;99.90;;;;;;5075523;28;20028;-62
2023/04/15 04:43:06;;;;;;;12.17;6.30;;;6.40;99.90;;;;;;5075004;28;20111;-62
2023/04/15 04:45:32;;;;;;;11.60;5.87;;;6.40;99.90;;;;;;5075359;28;20028;-62
2023/04/15 04:47:57;;;;;;;15.43;6.37;;;6.50;99.90;;;;;;5075106;28;20032;-62
2023/04/15 04:50:23;;;;;;;11.77;6.00;;;6.50;99.90;;;;;;5075610;28;20420;-62
2023/04/15 04:52:49;;;;;;;12.00;6.67;;;6.50;99.90;;;;;;5073874;28;20032;-62
2023/04/15 04:55:15;;;;;;;12.30;6.87;;;6.40;99.90;;;;;;5075556;28;20033;-62
2023/04/15 04:57:41;;;;;;;11.10;5.32;;;6.40;99.90;;;;;;5074877;28;20021;-62
2023/04/15 05:00:07;;;;;;;8.43;5.50;;;6.40;99.90;;;;;;5075401;28;20102;-62
2023/04/15 05:02:34;;;;;;;11.82;6.15;;;6.40;99.90;;;;;;5074730;28;20031;-62
2023/04/15 05:05:00;;;;;;;;;;;6.50;99.90;;;;;;5075958;28;20054;-62
2023/04/15 05:07:26;;;;;;;8.53;5.30;;;6.50;99.90;;;;;;5074869;28;20319;-62
2023/04/15 05:09:52;;;;;;;11.97;6.17;;;6.50;99.90;;;;;;5073943;28;20021;-80
2023/04/15 05:12:17;;;;;;;11.70;6.17;;;6.40;99.90;;;;;;5074686;28;20034;-61
2023/04/15 05:14:43;;;;;;;9.07;6.63;;;6.50;99.90;;;;;;5075065;28;20067;-62
2023/04/15 05:17:10;;;;;;;12.73;6.40;;;6.50;99.90;;;;;;5074639;28;20029;-62
2023/04/15 05:19:36;;;;;;;9.32;5.35;;;6.50;99.90;;;;;;5075165;28;20029;-62
2023/04/15 05:22:02;;;;;;;7.73;5.30;;;6.60;99.90;;;;;;5074975;28;20077;-62
2023/04/15 05:24:28;;;;;;;13.75;6.65;;;6.60;99.90;;;;;;5074497;28;20017;-62
2023/04/15 05:26:53;;;;;;;14.70;7.30;;;6.60;99.90;;;;;;5074607;28;20033;-77
2023/04/15 05:29:19;;;;;;;9.97;5.30;;;6.70;99.90;;;;;;5074546;28;20318;-62
2023/04/15 05:31:45;;;;;;;10.03;4.63;;;6.70;99.90;;;;;;5074830;28;20339;-61
2023/04/15 05:34:11;;;;;;;11.37;6.23;;;6.70;99.90;;;;;;5074610;28;20028;-61
2023/04/15 05:36:37;;;;;;;16.43;7.40;;;6.70;99.90;;;;;;5074898;28;20023;-62
2023/04/15 05:39:03;;;;;;;14.63;7.23;;;6.70;99.90;;;;;;5074615;28;20476;-66
2023/04/15 05:41:28;;;;;;;13.93;7.03;;;6.70;99.90;;;;;;5074711;28;20095;-61
2023/04/15 05:43:54;;;;;;;14.23;5.83;;;6.70;99.90;;;;;;5074845;28;20385;-62
2023/04/15 05:46:20;;;;;;;14.30;6.80;;;6.80;99.90;;;;;;5074323;28;20343;-62
2023/04/15 05:48:46;;;;;;;13.77;7.53;;;6.80;99.90;;;;;;5074831;28;20025;-61
2023/04/15 05:51:11;;;;;;;16.43;7.70;;;6.90;99.90;;;;;;5074214;28;20358;-61
2023/04/15 05:53:37;;;;;;;9.67;7.20;;;6.90;99.90;;;;;;5074928;28;20354;-78
2023/04/15 05:56:03;;;;;;;12.10;7.27;;;7.00;99.90;;;;;;5074662;28;20021;-62
2023/04/15 05:58:29;;;;;;;13.30;6.80;;;7.00;99.90;;;;;;5073994;28;20320;-62
2023/04/15 06:00:55;;;;;;;15.73;7.73;;;7.10;99.90;;;;;;5074386;28;20073;-61
2023/04/15 06:03:21;;;;;;;9.93;5.45;;;7.20;99.90;;;;;;5069426;28;20116;-62
2023/04/15 06:05:48;;;;;;;14.82;8.80;;;7.20;99.90;;;;;;5066090;28;20498;-61
2023/04/15 06:08:13;;;;;;;13.88;7.20;;;7.30;99.90;;;;;;5066989;28;20085;-62
2023/04/15 06:10:39;;;;;;;12.23;6.90;;;7.30;99.90;;;;;;5074123;28;20028;-61
2023/04/15 06:13:05;;;;;;;18.10;9.17;;;7.40;99.90;;;;;;5074312;28;20020;-62
2023/04/15 06:15:31;;;;;;;15.73;7.65;;;7.40;99.90;;;;;;5074306;28;20130;-62
2023/04/15 06:17:57;;;;;;;13.57;8.00;;;7.50;99.90;;;;;;5074504;28;20449;-62
2023/04/15 06:20:22;;;;;;;26.25;9.13;;;7.50;99.90;;;;;;5074151;28;20052;-78
2023/04/15 06:22:48;;;;;;;12.97;7.00;;;7.60;99.90;;;;;;5073530;28;20028;-62
2023/04/15 06:25:14;;;;;;;19.20;8.77;;;7.60;99.90;;;;;;5074263;28;20025;-62
2023/04/15 06:27:40;;;;;;;13.87;7.60;;;7.50;99.90;;;;;;5073900;28;20391;-62
2023/04/15 06:30:06;;;;;;;17.97;7.87;;;7.60;99.90;;;;;;5062986;28;20108;-62
2023/04/15 06:32:32;;;;;;;18.08;7.85;;;7.60;99.90;;;;;;5070050;28;20438;-62
2023/04/15 06:34:58;;;;;;;12.83;8.63;;;7.60;99.90;;;;;;5074276;28;20082;-62
2023/04/15 06:37:24;;;;;;;14.37;8.60;;;7.60;99.90;;;;;;5073939;28;20423;-62
2023/04/15 06:39:50;;;;;;;12.70;8.13;;;7.70;99.90;;;;;;5077661;28;20031;-62
2023/04/15 06:42:16;;;;;;;11.55;7.05;;;7.70;99.90;;;;;;5077982;28;20315;-63
2023/04/15 06:44:41;;;;;;;12.15;6.90;;;7.70;99.90;;;;;;5077297;28;20033;-62
2023/04/15 06:47:08;;;;;;;13.73;8.00;;;7.80;99.90;;;;;;5077968;28;20021;-62
2023/04/15 06:49:34;;;;;;;14.55;7.88;;;7.90;99.90;;;;;;5077536;28;20032;-62
2023/04/15 06:52:00;;;;;;;17.35;8.63;;;8.10;99.90;;;;;;5077388;28;20420;-62
2023/04/15 06:54:26;;;;;;;14.07;6.90;;;8.20;99.90;;;;;;5077272;28;20099;-62
2023/04/15 06:56:52;;;;;;;19.10;8.53;;;8.30;99.90;;;;;;5077425;28;20048;-62
2023/04/15 06:59:17;;;;;;;13.23;8.07;;;8.30;99.90;;;;;;5077763;28;20025;-61
2023/04/15 07:01:43;;;;;;;11.43;6.93;;;8.40;99.90;;;;;;5076922;28;20416;-62
2023/04/15 07:04:10;;;;;;;15.03;8.10;;;8.60;99.90;;;;;;5077551;28;20025;-76
2023/04/15 07:06:35;;;;;;;16.10;8.05;;;8.80;99.90;;;;;;5077271;28;20102;-62
2023/04/15 07:09:02;;;;;;;14.50;7.73;;;9.10;99.90;;;;;;5077032;28;20068;-61
2023/04/15 07:11:28;;;;;;;12.18;6.63;;;9.10;99.90;;;;;;5076023;28;20412;-61
2023/04/15 07:13:53;;;;;;;13.27;7.33;;;9.20;99.90;;;;;;5077244;28;20127;-62
2023/04/15 07:16:20;;;;;;;10.93;6.13;;;9.40;99.90;;;;;;5077230;28;20354;-61
2023/04/15 07:18:45;;;;;;;11.48;6.95;;;9.50;99.90;;;;;;5076559;28;20033;-62
2023/04/15 07:21:11;;;;;;;14.63;7.17;;;9.50;99.90;;;;;;5077082;28;20021;-73
2023/04/15 07:23:37;;;;;;;14.53;6.60;;;9.70;99.90;;;;;;5076041;28;20422;-62
2023/04/15 07:26:03;;;;;;;11.82;6.40;;;9.90;99.90;;;;;;5076843;28;20112;-62
2023/04/15 07:28:29;;;;;;;10.33;5.60;;;10.10;99.90;;;;;;5076995;28;20339;-77
2023/04/15 07:30:56;;;;;;;11.75;5.93;;;10.30;99.90;;;;;;5075288;28;20056;-63
2023/04/15 07:33:22;;;;;;;11.57;5.40;;;10.50;99.90;;;;;;5077041;28;20036;-62
2023/04/15 07:35:48;;;;;;;10.40;6.13;;;10.50;99.90;;;;;;5076291;28;20031;-62
2023/04/15 07:38:14;;;;;;;10.27;5.38;;;10.60;99.90;;;;;;5076789;28;20071;-62
2023/04/15 07:40:41;;;;;;;10.20;5.30;;;10.60;99.90;;;;;;5076940;28;20053;-61
2023/04/15 07:43:07;;;;;;;10.10;6.22;;;10.60;99.90;;;;;;5076600;28;20094;-62
2023/04/15 07:45:34;;;;;;;11.60;5.78;;;10.70;99.90;;;;;;5076964;28;21758;-62
2023/04/15 07:48:01;;;;;;;7.55;4.10;;;10.90;99.90;;;;;;5076576;28;20379;-62
2023/04/15 07:50:27;;;;;;;10.48;4.28;;;11.10;99.90;;;;;;5075357;28;20426;-62
2023/04/15 07:52:53;;;;;;;7.22;4.85;;;11.30;99.90;;;;;;5075984;28;20423;-62
2023/04/15 07:55:21;;;;;;;7.17;4.50;;;11.50;99.90;;;;;;5076492;28;20025;-62
2023/04/15 07:57:48;;;;;;;3.28;2.33;;;11.50;99.90;;;;;;5075928;28;20032;-62
2023/04/15 08:00:15;;;;;;;10.07;4.38;;;11.50;99.90;;;;;;5076238;28;20035;-61
2023/04/15 08:02:42;;;;;;;10.07;3.97;;;11.50;99.90;;;;;;5076185;28;20048;-61
2023/04/15 08:05:08;;;;;;;;;;;11.60;99.90;;;;;;5076427;28;20070;-62
2023/04/15 08:07:35;;;;;;;7.63;4.35;;;11.70;99.90;;;;;;5076197;28;19908;-62
2023/04/15 08:10:01;;;;;;;5.95;3.25;;;11.90;99.90;;;;;;5076155;28;20037;-62
2023/04/15 08:12:27;;;;;;;5.93;3.77;;;11.90;99.90;;;;;;5075427;28;20020;-64
2023/04/15 08:14:53;;;;;;;8.07;3.20;;;12.10;99.90;;;;;;5076035;28;20419;-62
2023/04/15 08:17:19;;;;;;;5.47;2.25;;;12.30;99.90;;;;;;5075758;28;20132;-62
2023/04/15 08:19:47;;;;;;;6.60;3.53;;;12.40;99.90;;;;;;5075921;28;20578;-62
2023/04/15 08:22:13;;;;;;;6.75;2.38;;;12.20;99.90;;;;;;5075572;28;20757;-62
2023/04/15 08:24:38;;;;;;;8.27;3.03;;;12.20;99.90;;;;;;5075889;28;20016;-62
2023/04/15 08:27:04;;;;;;;8.73;4.23;;;12.10;99.90;;;;;;5075625;28;20362;-69
2023/04/15 08:29:31;;;;;;;5.67;3.57;;;12.00;99.90;;;;;;5074277;28;20044;-62
2023/04/15 08:31:58;;;;;;;;;;;12.00;99.90;;;;;;5075984;28;20546;-62
2023/04/15 08:34:24;;;;;;;4.25;2.75;;;12.20;99.90;;;;;;5075556;28;19958;-62
2023/04/15 08:36:50;;;;;;;7.07;3.47;;;12.30;99.90;;;;;;5075845;28;20052;-62
2023/04/15 08:39:16;;;;;;;5.23;2.77;;;12.30;99.90;;;;;;5075269;28;20446;-62
2023/04/15 08:41:47;;;;;;;4.07;2.25;;;12.30;99.90;;;;;;5075502;28;20024;-62
2023/04/15 08:44:14;;;;;;;5.40;2.78;;;12.30;99.90;;;;;;5075007;28;20324;-63
2023/04/15 08:46:41;;;;;;;11.23;4.13;;;12.30;99.90;;;;;;5075374;28;20013;-63
2023/04/15 08:49:12;;;;;;;9.65;3.90;;;12.20;99.90;;;;;;5075497;28;20020;-62
2023/04/15 08:51:41;;;;;;;6.30;3.40;;;12.20;99.90;;;;;;5075089;28;20032;-62
2023/04/15 08:54:10;;;;;;;8.10;3.17;;;12.00;99.90;;;;;;5075270;28;20035;-62
2023/04/15 08:56:37;;;;;;;6.07;2.85;;;12.00;99.90;;;;;;5074869;28;20024;-62
2023/04/15 08:59:04;;;;;;;7.53;3.28;;;12.00;99.90;;;;;;5075498;28;20063;-74
2023/04/15 09:01:31;;;;;;;6.95;2.67;;;12.00;99.90;;;;;;5074182;28;20407;-62
2023/04/15 09:03:58;;;;;;;2.80;2.28;;;12.00;99.90;;;;;;5074962;28;20036;-63
2023/04/15 09:06:25;;;;;;;5.82;2.35;;;12.10;99.90;;;;;;5075275;28;20035;-62
2023/04/15 09:08:51;;;;;;;3.35;1.48;;;12.30;99.90;;;;;;5074979;28;20051;-62
2023/04/15 09:11:18;;;;;;;4.70;2.28;;;12.30;99.90;;;;;;5075313;28;20033;-76
2023/04/15 09:13:44;;;;;;;2.85;1.80;;;12.10;99.90;;;;;;5074496;28;20085;-62
2023/04/15 09:16:10;;;;;;;4.35;2.60;;;11.90;99.90;;;;;;5075355;28;20028;-62
2023/04/15 09:18:37;;;;;;;8.40;1.73;;;12.00;99.90;;;;;;5075263;28;20109;-62
2023/04/15 09:21:11;;;;;;;5.57;2.67;;;12.10;99.90;;;;;;5074454;28;20021;-73
2023/04/15 09:23:39;;;;;;;5.88;2.92;;;12.00;99.90;;;;;;5074979;28;20074;-62
2023/04/15 09:26:06;;;;;;;6.68;3.60;;;12.00;99.90;;;;;;5074571;28;20028;-64
2023/04/15 09:28:32;;;;;;;6.28;3.22;;;12.00;99.90;;;;;;5074778;28;20143;-63
2023/04/15 09:30:58;;;;;;;4.70;2.70;;;11.90;99.90;;;;;;5074452;28;20090;-62
2023/04/15 09:33:26;;;;;;;7.85;3.78;;;11.40;99.90;;;;;;5074960;28;20264;-63
2023/04/15 09:36:00;;;;;;;4.97;2.72;;;11.40;99.90;;;;;;5074416;28;20021;-67
2023/04/15 09:38:26;;;;;;;7.07;4.00;;;11.40;99.90;;;;;;5074749;28;20074;-62
2023/04/15 09:40:52;;;;;;;5.23;2.00;;;11.30;99.90;;;;;;5074329;28;20025;-62
2023/04/15 09:43:17;;;;;;;2.37;1.73;;;11.30;99.90;;;;;;5074690;28;20664;-62
2023/04/15 09:45:52;;;;;;;4.80;2.07;;;11.20;99.90;;;;;;5073680;28;20036;-63
2023/04/15 09:48:30;;;;;;;7.13;2.05;;;11.10;99.90;;;;;;5060663;28;20051;-63
2023/04/15 09:51:00;;;;;;;4.28;2.80;;;11.20;99.90;;;;;;5074595;28;20096;-64
2023/04/15 09:53:27;;;;;;;6.03;4.05;;;11.00;99.90;;;;;;5060765;28;20017;-62
2023/04/15 09:55:55;;;;;;;;;;;11.30;99.90;;;;;;5075141;28;20031;-76
2023/04/15 09:58:23;;;;;;;4.18;1.98;;;11.50;99.90;;;;;;5074319;28;19908;-75
2023/04/15 10:00:50;;;;;;;3.95;2.85;;;11.40;99.90;;;;;;5074533;28;20376;-62
2023/04/15 10:03:22;;;;;;;6.85;3.45;;;11.30;99.90;;;;;;5074077;28;20021;-62
2023/04/15 10:05:50;;;;;;;5.32;2.70;;;11.30;99.90;;;;;;5074705;28;20016;-76
2023/04/15 10:08:20;;;;;;;4.78;3.42;;;11.00;99.90;;;;;;5074488;28;20033;-62
2023/04/15 10:10:47;;;;;;;6.13;3.65;;;10.90;99.90;;;;;;5073323;28;20040;-63
2023/04/15 10:13:18;;;;;;;8.93;4.70;;;11.10;99.90;;;;;;5075471;28;20031;-62
2023/04/15 10:15:48;;;;;;;7.80;4.03;;;11.10;99.90;;;;;;5077977;28;20356;-62
2023/04/15 10:18:16;;;;;;;8.88;4.78;;;11.30;99.90;;;;;;5078141;28;20093;-63
2023/04/15 10:20:43;;;;;;;5.00;2.13;;;11.20;99.90;;;;;;5077886;28;20027;-62
2023/04/15 10:23:09;;;;;;;;;;;11.30;99.90;;;;;;5078672;28;20055;-62
2023/04/15 10:25:36;;;;;;;9.00;3.20;;;11.50;99.90;;;;;;5077826;28;19905;-62
2023/04/15 10:28:02;;;;;;;12.50;6.13;;;11.40;99.90;;;;;;5077683;28;20043;-62
2023/04/15 10:30:29;;;;;;;4.95;2.65;;;11.50;99.90;;;;;;5078123;28;20323;-62
2023/04/15 10:32:56;;;;;;;6.75;4.00;;;11.50;99.90;;;;;;5077533;28;20036;-62
2023/04/15 10:35:22;;;;;;;6.82;2.85;;;11.40;99.90;;;;;;5077863;28;20408;-63
2023/04/15 10:37:48;;;;;;;7.50;3.40;;;11.50;99.90;;;;;;5077482;28;20047;-63
2023/04/15 10:40:28;;;;;;;4.07;2.33;;;11.50;99.90;;;;;;5077833;28;20029;-62
2023/04/15 10:42:55;;;;;;;6.28;2.40;;;11.30;99.90;;;;;;5077395;28;20017;-75
2023/04/15 10:45:21;;;;;;;5.43;2.50;;;11.20;99.90;;;;;;5077886;28;20020;-80
2023/04/15 10:47:55;;;;;;;3.97;2.37;;;11.40;99.90;;;;;;5077631;28;20029;-62
2023/04/15 10:50:21;;;;;;;1.52;1.15;;;11.20;99.90;;;;;;5077854;28;20025;-62
2023/04/15 10:52:50;;;;;;;4.15;2.90;;;11.30;99.90;;;;;;5077203;28;20021;-62
2023/04/15 10:55:25;;;;;;;14.27;3.58;;;11.50;99.90;;;;;;5076405;28;20036;-62
2023/04/15 10:57:57;;;;;;;8.47;3.33;;;11.40;99.90;;;;;;5077161;28;20051;-63
2023/04/15 11:00:29;;;;;;;6.90;3.33;;;11.50;99.90;;;;;;5077906;28;20319;-77
2023/04/15 11:03:07;;;;;;;5.55;1.60;;;11.40;99.90;;;;;;5076985;28;20052;-63
2023/04/15 11:05:48;;;;;;;4.47;1.83;;;11.40;99.90;;;;;;5077455;28;20411;-62
2023/04/15 11:08:15;;;;;;;5.43;2.38;;;11.30;99.90;;;;;;5077296;28;20120;-62
2023/04/15 11:10:40;;;;;;;1.33;1.25;;;11.30;99.90;;;;;;5075443;28;20484;-62
2023/04/15 11:13:35;;;;;;;2.73;1.40;;;11.40;99.90;;;;;;5074973;28;20028;-76
2023/04/15 11:16:01;;;;;;;1.27;0.93;;;11.30;99.90;;;;;;5074273;28;20036;-62
2023/04/15 11:18:30;;;;;;;8.60;1.80;;;11.60;99.90;;;;;;5076278;28;20449;-78
2023/04/15 11:21:01;;;;;;;4.03;1.60;;;11.90;99.90;;;;;;5076638;28;20111;-63
2023/04/15 11:23:28;;;;;;;5.78;2.30;;;11.80;99.90;;;;;;5076042;28;20078;-62
2023/04/15 11:25:54;;;;;;;;;;;11.90;99.90;;;;;;5076749;28;20016;-63
2023/04/15 11:28:19;;;;;;;2.47;0.95;;;11.90;99.90;;;;;;5076237;28;19942;-63
2023/04/15 11:30:45;;;;;;;4.03;2.27;;;11.60;99.90;;;;;;5076582;28;20021;-61
2023/04/15 11:33:12;;;;;;;3.73;2.30;;;11.90;99.90;;;;;;5076834;28;20028;-62
2023/04/15 11:35:40;;;;;;;2.85;2.15;;;12.00;99.90;;;;;;5076491;28;20024;-62
2023/04/15 11:38:12;;;;;;;3.00;1.75;;;12.30;99.90;;;;;;5077354;28;20052;-62
2023/04/15 11:40:39;;;;;;;2.22;1.52;;;12.10;99.90;;;;;;5076357;28;20073;-62
2023/04/15 11:43:17;;;;;;;1.63;1.35;;;12.10;99.90;;;;;;5076751;28;20048;-65
2023/04/15 11:45:55;;;;;;;3.97;2.53;;;12.10;99.90;;;;;;5075118;28;20063;-63
2023/04/15 11:48:25;;;;;;;3.13;1.70;;;12.00;99.90;;;;;;5076917;28;20350;-69
2023/04/15 11:50:57;;;;;;;4.53;2.35;;;11.90;99.90;;;;;;5076280;28;20079;-63
2023/04/15 11:53:24;;;;;;;2.90;2.20;;;12.30;99.90;;;;;;5076851;28;20137;-62
2023/04/15 11:55:52;;;;;;;2.67;1.60;;;12.10;99.90;;;;;;5076316;28;20033;-76
2023/04/15 11:58:25;;;;;;;1.45;1.30;;;12.00;99.90;;;;;;5076624;28;20036;-62
2023/04/15 12:00:56;;;;;;;2.75;1.88;;;12.10;99.90;;;;;;5075912;28;20013;-63
2023/04/15 12:03:28;;;;;;;4.47;2.38;;;11.90;99.90;;;;;;5076270;28;20032;-75
2023/04/15 12:06:15;;;;;;;2.85;1.85;;;11.80;99.90;;;;;;5076281;28;20012;-62
2023/04/15 12:09:05;;;;;;;2.05;1.63;;;12.00;99.90;;;;;;5074752;28;20029;-76
2023/04/15 12:11:47;;;;;;;5.50;2.85;;;12.10;99.90;;;;;;5074894;28;20056;-62
2023/04/15 12:14:19;;;;;;;2.00;1.08;;;11.90;99.90;;;;;;5075752;28;20025;-62
2023/04/15 12:16:50;;;;;;;5.32;2.50;;;11.60;99.90;;;;;;5075978;28;20028;-63
2023/04/15 12:19:31;;;;;;;3.72;1.77;;;11.60;99.90;;;;;;5075465;28;20112;-63
2023/04/15 12:22:02;;;;;;;3.40;2.35;;;11.50;99.90;;;;;;5075996;28;20378;-62
2023/04/15 12:24:31;;;;;;;0.88;0.82;;;11.90;99.90;;;;;;5075343;28;20020;-63
2023/04/15 12:27:01;;;;;;;2.30;1.27;;;11.80;99.90;;;;;;5074840;28;20032;-63
2023/04/15 12:29:28;;;;;;;2.05;1.05;;;11.70;99.90;;;;;;5075297;28;20446;-62
2023/04/15 12:31:56;;;;;;;1.83;1.20;;;11.80;99.90;;;;;;5076026;28;20025;-63
2023/04/15 12:34:30;;;;;;;1.60;0.82;;;11.70;99.90;;;;;;5075175;28;20716;-76
2023/04/15 12:36:57;;;;;;;1.50;0.63;;;11.70;99.90;;;;;;5074783;28;20028;-63
2023/04/15 12:39:27;;;;;;;3.95;1.23;;;11.50;99.90;;;;;;5075166;28;20039;-63
2023/04/15 12:41:53;;;;;;;2.92;1.70;;;11.90;99.90;;;;;;5075824;28;20093;-62
2023/04/15 12:44:21;;;;;;;0.40;0.40;;;11.70;99.90;;;;;;5075387;28;20024;-63
2023/04/15 12:46:47;;;;;;;0.30;0.30;;;11.60;99.90;;;;;;5075847;28;20257;-63
2023/04/15 12:49:18;;;;;;;1.77;1.00;;;11.60;99.90;;;;;;5075470;28;20028;-79
2023/04/15 12:51:44;;;;;;;1.92;1.02;;;11.60;99.90;;;;;;5061804;28;20029;-74